createdAt,value
2017-09-05T00:00:27.362Z,20.10
2017-09-05T00:02:54.989Z,19.90
2017-09-05T00:05:22.626Z,20.10
2017-09-05T00:08:05.112Z,19.80
2017-09-05T00:10:49.446Z,19.90
2017-09-05T00:13:26.846Z,20.20
2017-09-05T00:16:14.056Z,20.10
2017-09-05T00:18:44.177Z,20.40
2017-09-05T00:21:27.321Z,20.70
2017-09-05T00:23:54.801Z,21.00
2017-09-05T00:26:22.298Z,20.80
2017-09-05T00:28:49.778Z,20.50
2017-09-05T00:31:17.259Z,20.70
2017-09-05T00:33:44.754Z,20.70
2017-09-05T00:36:12.226Z,20.70
2017-09-05T00:38:39.701Z,20.30
2017-09-05T00:41:07.188Z,20.00
2017-09-05T00:43:34.675Z,19.90
2017-09-05T00:46:02.155Z,20.00
2017-09-05T00:48:29.630Z,19.90
2017-09-05T00:50:57.108Z,19.90
2017-09-05T00:53:24.581Z,19.80
2017-09-05T00:55:52.087Z,19.70
2017-09-05T00:58:19.571Z,19.60
2017-09-05T01:00:47.052Z,19.80
2017-09-05T01:03:14.532Z,20.00
2017-09-05T01:05:42.015Z,19.80
2017-09-05T01:08:09.495Z,19.90
2017-09-05T01:10:36.969Z,19.90
2017-09-05T01:13:04.438Z,20.10
2017-09-05T01:15:31.909Z,20.10
2017-09-05T01:17:59.392Z,19.90
2017-09-05T01:20:26.884Z,19.90
2017-09-05T01:22:54.374Z,19.90
2017-09-05T01:25:21.851Z,19.90
2017-09-05T01:27:49.330Z,19.90
2017-09-05T01:30:16.819Z,19.80
2017-09-05T01:32:44.295Z,19.80
2017-09-05T01:35:11.783Z,19.80
2017-09-05T01:37:39.272Z,19.80
2017-09-05T01:40:09.606Z,19.90
2017-09-05T01:42:37.087Z,19.90
2017-09-05T01:45:04.561Z,19.90
2017-09-05T01:47:32.138Z,20.00
2017-09-05T01:49:59.610Z,19.80
2017-09-05T01:52:27.081Z,19.70
2017-09-05T01:54:54.557Z,19.70
2017-09-05T01:57:22.038Z,19.50
2017-09-05T01:59:49.509Z,19.50
2017-09-05T02:02:16.982Z,19.50
2017-09-05T02:04:44.465Z,19.50
2017-09-05T02:07:11.948Z,19.40
2017-09-05T02:09:39.459Z,19.50
2017-09-05T02:12:06.937Z,19.50
2017-09-05T02:14:34.409Z,19.60
2017-09-05T02:17:01.890Z,19.50
2017-09-05T02:19:29.365Z,19.60
2017-09-05T02:21:56.873Z,19.70
2017-09-05T02:24:24.325Z,19.60
2017-09-05T02:26:51.821Z,19.50
2017-09-05T02:29:19.302Z,19.50
2017-09-05T02:31:46.778Z,19.40
2017-09-05T02:34:14.255Z,19.30
2017-09-05T02:36:41.730Z,19.50
2017-09-05T02:39:09.206Z,19.60
2017-09-05T02:41:36.694Z,19.60
2017-09-05T02:44:04.177Z,19.40
2017-09-05T02:46:31.652Z,19.50
2017-09-05T02:48:59.130Z,19.40
2017-09-05T02:51:26.610Z,19.20
2017-09-05T02:53:54.113Z,19.20
2017-09-05T02:56:21.590Z,19.10
2017-09-05T02:58:49.082Z,19.20
2017-09-05T03:01:16.562Z,19.30
2017-09-05T03:03:44.042Z,19.50
2017-09-05T03:06:11.531Z,19.40
2017-09-05T03:08:39.018Z,19.30
2017-09-05T03:11:06.501Z,19.30
2017-09-05T03:13:34.000Z,19.20
2017-09-05T03:16:01.483Z,19.10
2017-09-05T03:18:28.953Z,19.30
2017-09-05T03:20:56.430Z,19.30
2017-09-05T03:23:23.910Z,19.30
2017-09-05T03:25:51.400Z,19.30
2017-09-05T03:28:18.894Z,19.70
2017-09-05T03:30:46.378Z,19.50
2017-09-05T03:33:13.861Z,19.40
2017-09-05T03:35:41.338Z,19.30
2017-09-05T03:38:08.813Z,19.20
2017-09-05T03:40:36.289Z,19.30
2017-09-05T03:43:03.777Z,19.40
2017-09-05T03:45:31.265Z,19.40
2017-09-05T03:47:58.746Z,19.30
2017-09-05T03:50:26.231Z,19.20
2017-09-05T03:52:53.704Z,19.10
2017-09-05T03:55:21.191Z,19.10
2017-09-05T03:57:48.669Z,19.10
2017-09-05T04:00:16.151Z,19.10
2017-09-05T04:02:43.649Z,19.00
2017-09-05T04:05:11.131Z,18.90
2017-09-05T04:07:38.606Z,18.80
2017-09-05T04:10:06.086Z,18.80
2017-09-05T04:12:33.566Z,18.80
2017-09-05T04:15:01.052Z,18.70
2017-09-05T04:17:28.538Z,18.70
2017-09-05T04:19:56.032Z,18.70
2017-09-05T04:22:23.527Z,18.60
2017-09-05T04:24:51.033Z,18.80
2017-09-05T04:27:18.520Z,18.80
2017-09-05T04:29:46.005Z,19.00
2017-09-05T04:32:13.492Z,18.70
2017-09-05T04:34:40.978Z,18.70
2017-09-05T04:37:08.464Z,18.80
2017-09-05T04:39:35.942Z,18.90
2017-09-05T04:42:03.426Z,18.90
2017-09-05T04:44:30.910Z,18.80
2017-09-05T04:46:58.396Z,18.70
2017-09-05T04:49:25.878Z,18.80
2017-09-05T04:51:53.371Z,18.70
2017-09-05T04:54:20.856Z,18.70
2017-09-05T04:56:48.352Z,18.60
2017-09-05T04:59:16.595Z,18.70
2017-09-05T05:01:44.084Z,18.70
2017-09-05T05:04:11.555Z,18.60
2017-09-05T05:06:39.029Z,18.60
2017-09-05T05:09:06.512Z,18.60
2017-09-05T05:11:34.001Z,18.50
2017-09-05T05:14:01.488Z,18.50
2017-09-05T05:16:28.994Z,18.40
2017-09-05T05:18:56.471Z,18.40
2017-09-05T05:21:23.963Z,18.40
2017-09-05T05:23:51.448Z,18.30
2017-09-05T05:26:24.827Z,18.30
2017-09-05T05:28:52.314Z,18.20
2017-09-05T05:31:19.795Z,18.30
2017-09-05T05:33:47.270Z,18.20
2017-09-05T05:36:14.743Z,18.20
2017-09-05T05:38:42.220Z,18.20
2017-09-05T05:41:09.698Z,18.30
2017-09-05T05:43:37.179Z,18.40
2017-09-05T05:46:04.662Z,18.40
2017-09-05T05:48:32.145Z,18.50
2017-09-05T05:50:59.626Z,18.50
2017-09-05T05:53:27.101Z,18.40
2017-09-05T05:55:54.595Z,18.50
2017-09-05T05:58:22.075Z,18.50
2017-09-05T06:00:49.566Z,18.60
2017-09-05T06:03:17.057Z,18.60
2017-09-05T06:05:44.545Z,18.60
2017-09-05T06:08:12.025Z,18.60
2017-09-05T06:10:39.506Z,18.70
2017-09-05T06:13:06.987Z,18.70
2017-09-05T06:15:34.466Z,18.90
2017-09-05T06:18:01.953Z,19.00
2017-09-05T06:20:29.433Z,19.00
2017-09-05T06:22:56.927Z,19.10
2017-09-05T06:25:24.406Z,19.10
2017-09-05T06:27:51.891Z,19.10
2017-09-05T06:30:19.365Z,19.20
2017-09-05T06:32:46.901Z,19.30
2017-09-05T06:35:14.385Z,19.40
2017-09-05T06:37:41.878Z,19.50
2017-09-05T06:40:09.374Z,19.40
2017-09-05T06:42:36.867Z,19.50
2017-09-05T06:45:04.347Z,19.40
2017-09-05T06:47:31.938Z,19.60
2017-09-05T06:49:59.431Z,19.90
2017-09-05T06:52:26.910Z,19.80
2017-09-05T06:54:54.399Z,19.90
2017-09-05T06:57:21.878Z,19.90
2017-09-05T06:59:49.364Z,19.80
2017-09-05T07:02:16.846Z,19.90
2017-09-05T07:04:44.327Z,19.80
2017-09-05T07:07:11.809Z,20.10
2017-09-05T07:09:39.298Z,19.90
2017-09-05T07:12:06.778Z,20.00
2017-09-05T07:14:34.257Z,20.00
2017-09-05T07:17:01.735Z,20.10
2017-09-05T07:19:29.221Z,20.00
2017-09-05T07:21:56.699Z,20.00
2017-09-05T07:24:24.191Z,20.00
2017-09-05T07:26:51.671Z,20.00
2017-09-05T07:29:19.146Z,20.20
2017-09-05T07:31:46.628Z,20.40
2017-09-05T07:34:14.106Z,20.40
2017-09-05T07:36:41.595Z,20.40
2017-09-05T07:39:09.074Z,20.30
2017-09-05T07:41:36.547Z,20.20
2017-09-05T07:44:04.021Z,20.30
2017-09-05T07:46:31.506Z,20.30
2017-09-05T07:48:58.990Z,20.60
2017-09-05T07:51:26.488Z,20.50
2017-09-05T07:53:53.966Z,20.40
2017-09-05T07:56:21.450Z,20.50
2017-09-05T07:58:48.938Z,20.60
2017-09-05T08:01:16.532Z,20.50
2017-09-05T08:03:44.021Z,20.70
2017-09-05T08:06:11.497Z,21.00
2017-09-05T08:08:38.978Z,20.90
2017-09-05T08:11:06.469Z,21.20
2017-09-05T08:13:33.944Z,20.90
2017-09-05T08:16:01.433Z,20.90
2017-09-05T08:18:29.695Z,20.90
2017-09-05T08:20:57.177Z,20.80
2017-09-05T08:23:24.675Z,21.00
2017-09-05T08:25:52.154Z,21.10
2017-09-05T08:28:19.655Z,21.20
2017-09-05T08:30:47.139Z,21.20
2017-09-05T08:33:14.626Z,21.20
2017-09-05T08:35:42.131Z,21.20
2017-09-05T08:38:09.628Z,21.30
2017-09-05T08:40:37.114Z,21.30
2017-09-05T08:43:04.610Z,21.30
2017-09-05T08:45:32.104Z,21.30
2017-09-05T08:47:59.594Z,21.30
2017-09-05T08:50:27.074Z,21.50
2017-09-05T08:52:54.544Z,21.70
2017-09-05T08:55:22.031Z,21.60
2017-09-05T08:57:49.527Z,21.70
2017-09-05T09:00:17.004Z,21.80
2017-09-05T09:02:44.485Z,21.90
2017-09-05T09:05:11.977Z,22.00
2017-09-05T09:07:39.471Z,21.80
2017-09-05T09:10:06.962Z,21.80
2017-09-05T09:12:34.462Z,21.90
2017-09-05T09:15:01.941Z,21.80
2017-09-05T09:17:29.431Z,21.70
2017-09-05T09:19:56.911Z,21.70
2017-09-05T09:22:24.412Z,22.10
2017-09-05T09:24:51.893Z,22.00
2017-09-05T09:27:19.382Z,21.90
2017-09-05T09:29:46.876Z,22.00
2017-09-05T09:32:14.376Z,22.00
2017-09-05T09:34:41.859Z,22.00
2017-09-05T09:37:09.344Z,22.00
2017-09-05T09:39:36.841Z,22.00
2017-09-05T09:42:04.334Z,22.10
2017-09-05T09:44:31.811Z,22.00
2017-09-05T09:46:59.312Z,22.00
2017-09-05T09:49:26.798Z,22.00
2017-09-05T09:51:54.277Z,22.10
2017-09-05T09:54:21.757Z,22.20
2017-09-05T09:56:49.242Z,22.20
2017-09-05T09:59:16.739Z,22.30
2017-09-05T10:01:44.222Z,22.40
2017-09-05T10:04:11.701Z,22.40
2017-09-05T10:06:39.193Z,22.30
2017-09-05T10:09:06.682Z,22.40
2017-09-05T10:11:34.171Z,22.50
2017-09-05T10:14:01.663Z,22.50
2017-09-05T10:16:29.149Z,22.60
2017-09-05T10:18:56.632Z,22.70
2017-09-05T10:21:24.208Z,22.90
2017-09-05T10:23:51.692Z,23.20
2017-09-05T10:26:19.212Z,23.40
2017-09-05T10:28:46.707Z,23.50
2017-09-05T10:31:14.197Z,23.60
2017-09-05T10:33:41.684Z,23.50
2017-09-05T10:36:09.178Z,23.50
2017-09-05T10:38:36.674Z,23.60
2017-09-05T10:41:04.149Z,23.50
2017-09-05T10:43:31.621Z,23.30
2017-09-05T10:45:59.106Z,23.40
2017-09-05T10:48:26.658Z,23.50
2017-09-05T10:50:54.142Z,23.30
2017-09-05T10:53:21.630Z,23.30
2017-09-05T10:55:49.133Z,23.20
2017-09-05T10:58:16.627Z,23.20
2017-09-05T11:00:44.114Z,23.10
2017-09-05T11:03:11.604Z,23.20
2017-09-05T11:05:39.107Z,23.30
2017-09-05T11:08:06.633Z,23.40
2017-09-05T11:10:34.134Z,23.70
2017-09-05T11:13:01.623Z,23.40
2017-09-05T11:15:29.108Z,23.60
2017-09-05T11:17:56.603Z,23.80
2017-09-05T11:20:24.120Z,23.90
2017-09-05T11:22:51.594Z,23.90
2017-09-05T11:25:19.083Z,24.10
2017-09-05T11:27:46.578Z,24.10
2017-09-05T11:30:14.076Z,24.00
2017-09-05T11:32:41.557Z,24.10
2017-09-05T11:35:09.063Z,24.50
2017-09-05T11:37:36.558Z,24.70
2017-09-05T11:40:04.060Z,24.70
2017-09-05T11:42:31.561Z,24.60
2017-09-05T11:44:59.062Z,24.50
2017-09-05T11:47:26.553Z,24.60
2017-09-05T11:49:54.042Z,24.90
2017-09-05T11:52:21.517Z,25.00
2017-09-05T11:54:48.993Z,24.80
2017-09-05T11:57:16.487Z,24.50
2017-09-05T11:59:43.968Z,24.50
2017-09-05T12:02:11.455Z,24.70
2017-09-05T12:04:38.945Z,24.60
2017-09-05T12:07:06.441Z,24.60
2017-09-05T12:09:33.935Z,24.30
2017-09-05T12:12:01.426Z,24.30
2017-09-05T12:14:28.911Z,24.40
2017-09-05T12:16:56.411Z,24.60
2017-09-05T12:19:23.886Z,24.50
2017-09-05T12:21:51.362Z,24.60
2017-09-05T12:24:19.615Z,24.60
2017-09-05T12:26:47.094Z,24.60
2017-09-05T12:29:14.583Z,24.60
2017-09-05T12:31:42.084Z,24.30
2017-09-05T12:34:09.558Z,24.10
2017-09-05T12:36:37.043Z,24.10
2017-09-05T12:39:04.530Z,24.10
2017-09-05T12:41:32.010Z,24.20
2017-09-05T12:43:59.507Z,24.40
2017-09-05T12:46:26.987Z,24.40
2017-09-05T12:48:54.469Z,24.50
2017-09-05T12:51:21.941Z,24.50
2017-09-05T12:53:49.419Z,24.50
2017-09-05T12:56:16.916Z,24.50
2017-09-05T12:58:44.406Z,24.60
2017-09-05T13:01:11.891Z,24.50
2017-09-05T13:03:39.382Z,24.60
2017-09-05T13:06:06.866Z,24.60
2017-09-05T13:08:34.340Z,24.50
2017-09-05T13:11:01.818Z,24.80
2017-09-05T13:13:29.302Z,24.70
2017-09-05T13:15:56.784Z,24.70
2017-09-05T13:18:24.271Z,25.20
2017-09-05T13:20:51.744Z,25.00
2017-09-05T13:23:19.292Z,24.50
2017-09-05T13:25:46.810Z,24.50
2017-09-05T13:28:14.295Z,24.60
2017-09-05T13:30:41.775Z,24.60
2017-09-05T13:33:09.259Z,24.70
2017-09-05T13:35:36.746Z,25.00
2017-09-05T13:38:04.246Z,25.00
2017-09-05T13:40:31.811Z,24.70
2017-09-05T13:42:59.299Z,24.80
2017-09-05T13:45:26.795Z,24.60
2017-09-05T13:47:54.373Z,24.40
2017-09-05T13:50:21.911Z,24.10
2017-09-05T13:52:50.521Z,23.90
2017-09-05T13:55:18.766Z,23.80
2017-09-05T13:57:46.250Z,24.50
2017-09-05T14:00:13.734Z,24.30
2017-09-05T14:02:41.210Z,24.40
2017-09-05T14:05:08.698Z,24.50
2017-09-05T14:07:36.198Z,24.40
2017-09-05T14:10:03.691Z,24.60
2017-09-05T14:12:31.177Z,24.70
2017-09-05T14:14:58.720Z,24.80
2017-09-05T14:17:26.206Z,24.60
2017-09-05T14:19:54.006Z,24.60
2017-09-05T14:22:21.668Z,24.60
2017-09-05T14:24:49.435Z,24.50
2017-09-05T14:27:17.302Z,24.70
2017-09-05T14:29:44.963Z,24.50
2017-09-05T14:32:12.559Z,24.30
2017-09-05T14:34:40.151Z,24.40
2017-09-05T14:37:07.954Z,24.60
2017-09-05T14:39:35.646Z,25.20
2017-09-05T14:42:03.259Z,25.20
2017-09-05T14:44:30.810Z,25.10
2017-09-05T14:46:58.396Z,24.90
2017-09-05T14:49:26.168Z,25.10
2017-09-05T14:51:53.931Z,25.20
2017-09-05T14:54:21.801Z,25.30
2017-09-05T14:56:49.375Z,25.00
2017-09-05T14:59:17.044Z,24.80
2017-09-05T15:01:44.721Z,24.40
2017-09-05T15:04:12.556Z,24.30
2017-09-05T15:06:41.147Z,24.40
2017-09-05T15:09:08.904Z,24.60
2017-09-05T15:11:36.600Z,24.50
2017-09-05T15:14:04.443Z,24.50
2017-09-05T15:16:32.046Z,24.80
2017-09-05T15:18:59.713Z,24.80
2017-09-05T15:21:27.531Z,25.00
2017-09-05T15:23:55.006Z,24.70
2017-09-05T15:26:22.485Z,24.80
2017-09-05T15:28:50.011Z,25.10
2017-09-05T15:31:17.612Z,25.10
2017-09-05T15:33:45.412Z,25.20
2017-09-05T15:36:13.242Z,25.00
2017-09-05T15:38:40.804Z,25.00
2017-09-05T15:41:09.353Z,24.60
2017-09-05T15:43:36.866Z,24.60
2017-09-05T15:46:04.534Z,24.80
2017-09-05T15:48:32.137Z,24.90
2017-09-05T15:50:59.797Z,24.80
2017-09-05T15:53:27.407Z,24.70
2017-09-05T15:55:54.956Z,25.00
2017-09-05T15:58:22.705Z,25.10
2017-09-05T16:00:50.240Z,25.00
2017-09-05T16:03:17.883Z,24.90
2017-09-05T16:05:45.536Z,24.90
2017-09-05T16:08:13.622Z,25.00
2017-09-05T16:10:41.521Z,25.10
2017-09-05T16:13:09.933Z,25.00
2017-09-05T16:15:38.104Z,25.10
2017-09-05T16:18:05.927Z,25.20
2017-09-05T16:20:33.419Z,25.10
2017-09-05T16:23:00.907Z,25.00
2017-09-05T16:25:29.344Z,25.00
2017-09-05T16:27:56.844Z,25.00
2017-09-05T16:30:24.389Z,24.90
2017-09-05T16:32:51.884Z,24.80
2017-09-05T16:35:19.426Z,25.00
2017-09-05T16:37:47.043Z,25.00
2017-09-05T16:40:14.599Z,25.00
2017-09-05T16:42:42.087Z,25.10
2017-09-05T16:45:10.356Z,25.10
2017-09-05T16:47:37.844Z,25.10
2017-09-05T16:50:05.331Z,25.10
2017-09-05T16:52:33.722Z,25.00
2017-09-05T16:55:01.311Z,25.00
2017-09-05T16:57:29.752Z,25.10
2017-09-05T16:59:57.246Z,25.20
2017-09-05T17:02:24.733Z,25.20
2017-09-05T17:04:52.219Z,25.20
2017-09-05T17:07:19.703Z,25.20
2017-09-05T17:09:47.261Z,25.20
2017-09-05T17:12:14.757Z,25.30
2017-09-05T17:14:42.262Z,25.30
2017-09-05T17:17:09.755Z,25.30
2017-09-05T17:19:37.246Z,25.30
2017-09-05T17:22:04.739Z,25.20
2017-09-05T17:24:33.156Z,25.00
2017-09-05T17:27:00.659Z,25.10
2017-09-05T17:29:28.155Z,25.10
2017-09-05T17:31:55.647Z,25.20
2017-09-05T17:34:23.134Z,25.10
2017-09-05T17:36:50.629Z,25.00
2017-09-05T17:39:18.129Z,25.00
2017-09-05T17:41:45.618Z,25.00
2017-09-05T17:44:13.843Z,25.00
2017-09-05T17:46:41.334Z,24.90
2017-09-05T17:49:08.824Z,24.90
2017-09-05T17:51:36.356Z,24.90
2017-09-05T17:54:03.864Z,25.00
2017-09-05T17:56:31.354Z,24.90
2017-09-05T17:58:58.841Z,24.80
2017-09-05T18:01:26.351Z,24.80
2017-09-05T18:03:53.837Z,24.80
2017-09-05T18:06:21.332Z,24.80
2017-09-05T18:08:48.820Z,24.80
2017-09-05T18:11:16.301Z,24.80
2017-09-05T18:13:44.532Z,24.80
2017-09-05T18:16:12.022Z,24.80
2017-09-05T18:18:39.514Z,24.80
2017-09-05T18:21:07.008Z,24.80
2017-09-05T18:23:35.227Z,24.90
2017-09-05T18:26:03.532Z,24.90
2017-09-05T18:28:31.578Z,24.90
2017-09-05T18:30:59.073Z,24.90
2017-09-05T18:33:26.577Z,24.80
2017-09-05T18:35:54.117Z,24.80
2017-09-05T18:38:21.605Z,24.80
2017-09-05T18:40:49.959Z,24.80
2017-09-05T18:43:17.442Z,24.80
2017-09-05T18:45:44.921Z,24.80
2017-09-05T18:48:12.470Z,24.80
2017-09-05T18:50:39.977Z,24.70
2017-09-05T18:53:07.474Z,24.80
2017-09-05T18:55:34.953Z,24.70
2017-09-05T18:58:02.923Z,24.70
2017-09-05T19:00:30.417Z,24.70
2017-09-05T19:02:58.128Z,24.70
2017-09-05T19:05:25.609Z,24.60
2017-09-05T19:07:53.919Z,24.70
2017-09-05T19:10:21.420Z,24.70
2017-09-05T19:12:49.636Z,24.70
2017-09-05T19:15:17.126Z,24.70
2017-09-05T19:17:44.619Z,24.70
2017-09-05T19:20:12.163Z,24.70
2017-09-05T19:22:39.705Z,24.60
2017-09-05T19:25:07.207Z,24.50
2017-09-05T19:27:34.703Z,24.50
2017-09-05T19:30:03.032Z,24.50
2017-09-05T19:32:30.538Z,24.50
2017-09-05T19:34:58.026Z,24.50
2017-09-05T19:37:25.522Z,24.50
2017-09-05T19:39:53.032Z,24.50
2017-09-05T19:42:20.526Z,24.50
2017-09-05T19:44:48.028Z,24.50
2017-09-05T19:47:15.525Z,24.50
2017-09-05T19:49:43.720Z,24.50
2017-09-05T19:52:12.030Z,24.40
2017-09-05T19:54:40.082Z,24.40
2017-09-05T19:57:08.160Z,24.40
2017-09-05T19:59:36.314Z,24.40
2017-09-05T20:02:04.698Z,24.30
2017-09-05T20:04:33.076Z,24.20
2017-09-05T20:07:01.925Z,24.20
2017-09-05T20:09:32.041Z,24.20
2017-09-05T20:12:00.674Z,24.30
2017-09-05T20:14:29.367Z,24.20
2017-09-05T20:16:58.603Z,24.20
2017-09-05T20:19:26.745Z,24.10
2017-09-05T20:21:55.977Z,24.10
2017-09-05T20:24:25.018Z,24.10
2017-09-05T20:26:53.719Z,24.00
2017-09-05T20:29:21.207Z,24.00
2017-09-05T20:31:50.768Z,24.00
2017-09-05T20:34:19.634Z,24.00
2017-09-05T20:36:49.363Z,24.00
2017-09-05T20:39:19.146Z,24.00
2017-09-05T20:41:48.946Z,24.00
2017-09-05T20:44:16.440Z,24.00
2017-09-05T20:46:44.684Z,24.00
2017-09-05T20:49:13.011Z,24.00
2017-09-05T20:51:41.439Z,24.00
2017-09-05T20:54:08.930Z,24.10
2017-09-05T20:56:36.426Z,24.10
2017-09-05T20:59:03.923Z,24.10
2017-09-05T21:01:31.427Z,24.10
2017-09-05T21:03:58.921Z,24.10
2017-09-05T21:06:26.410Z,24.10
2017-09-05T21:08:53.906Z,24.20
2017-09-05T21:11:21.395Z,24.20
2017-09-05T21:13:48.884Z,24.20
2017-09-05T21:16:16.359Z,24.00
2017-09-05T21:18:44.735Z,23.90
2017-09-05T21:21:12.220Z,23.80
2017-09-05T21:23:39.711Z,23.70
2017-09-05T21:26:07.463Z,23.70
2017-09-05T21:28:34.952Z,23.70
2017-09-05T21:31:02.438Z,23.80
2017-09-05T21:33:29.927Z,24.00
2017-09-05T21:35:57.474Z,24.10
2017-09-05T21:38:24.964Z,24.00
2017-09-05T21:40:52.437Z,24.10
2017-09-05T21:43:20.676Z,24.00
2017-09-05T21:45:49.127Z,23.90
2017-09-05T21:48:16.615Z,24.10
2017-09-05T21:50:44.715Z,23.90
2017-09-05T21:53:12.195Z,23.70
2017-09-05T21:55:39.674Z,23.60
2017-09-05T21:58:07.153Z,23.50
2017-09-05T22:00:34.647Z,23.60
2017-09-05T22:03:02.136Z,23.50
2017-09-05T22:05:30.579Z,23.40
2017-09-05T22:07:58.172Z,23.30
2017-09-05T22:10:25.667Z,23.30
2017-09-05T22:12:53.162Z,23.30
2017-09-05T22:15:26.420Z,23.30
2017-09-05T22:17:53.899Z,23.20
2017-09-05T22:20:26.945Z,23.20
2017-09-05T22:22:54.426Z,23.20
2017-09-05T22:25:27.624Z,23.10
2017-09-05T22:28:13.910Z,23.10
2017-09-05T22:30:41.385Z,23.10
2017-09-05T22:33:08.858Z,23.10
2017-09-05T22:35:36.348Z,23.20
2017-09-05T22:38:03.830Z,23.20
2017-09-05T22:40:31.315Z,23.20
2017-09-05T22:42:59.555Z,22.90
2017-09-05T22:45:27.042Z,22.90
2017-09-05T22:47:54.587Z,22.70
2017-09-05T22:50:22.066Z,22.70
2017-09-05T22:52:49.542Z,22.60
2017-09-05T22:55:17.035Z,22.60
2017-09-05T22:57:44.505Z,22.60
2017-09-05T23:00:11.996Z,22.60
2017-09-05T23:02:39.483Z,22.60
2017-09-05T23:05:06.949Z,22.70
2017-09-05T23:07:34.426Z,22.60
2017-09-05T23:10:01.921Z,22.50
2017-09-05T23:12:29.411Z,22.80
2017-09-05T23:14:56.898Z,22.70
2017-09-05T23:17:24.374Z,22.80
2017-09-05T23:19:51.868Z,22.80
2017-09-05T23:22:20.205Z,22.80
2017-09-05T23:24:47.690Z,22.80
2017-09-05T23:27:15.166Z,22.60
2017-09-05T23:29:42.650Z,22.50
2017-09-05T23:32:10.141Z,22.40
2017-09-05T23:34:37.627Z,22.20
2017-09-05T23:37:05.118Z,22.30
2017-09-05T23:39:32.605Z,22.20
2017-09-05T23:42:00.083Z,22.30
2017-09-05T23:44:27.569Z,22.30
2017-09-05T23:46:55.059Z,22.10
2017-09-05T23:49:22.540Z,22.10
2017-09-05T23:51:50.030Z,22.20
2017-09-05T23:54:17.501Z,22.20
2017-09-05T23:56:45.014Z,22.20
2017-09-05T23:59:12.499Z,22.20
